Time;durP1;ratioP1;P1;durP2;ratioP2;P2;SDS_P1;SDS_P2;PMS_P1;PMS_P2;Temp;Humidity;BMP_temperature;BMP_pressure;BME280_temperature;BME280_humidity;BME280_pressure;Samples;Min_cycle;Max_cycle;Signal;HPM_P1;HPM_P2
2023/10/20 00:02:15;;;;;;;0.63;0.57;;;;;;;;;;12862735;23;20024;-78
2023/10/20 00:07:20;;;;;;;1.00;0.45;;;;;;;;;;12861132;23;20025;-78
2023/10/20 00:12:24;;;;;;;1.02;0.43;;;;;;;;;;12861071;23;20100;-78
2023/10/20 00:17:29;;;;;;;0.65;0.60;;;;;;;;;;12860092;23;20051;-78
2023/10/20 00:22:32;;;;;;;1.75;0.50;;;;;;;;;;12832716;23;20017;-79
2023/10/20 00:27:37;;;;;;;0.52;0.50;;;;;;;;;;12859753;23;20055;-78
2023/10/20 00:32:41;;;;;;;0.60;0.60;;;;;;;;;;12833217;23;20448;-79
2023/10/20 00:37:44;;;;;;;0.77;0.77;;;;;;;;;;12833768;23;20024;-79
2023/10/20 00:42:49;;;;;;;1.30;0.80;;;;;;;;;;12839853;23;20024;-78
2023/10/20 00:47:52;;;;;;;1.10;1.00;;;;;;;;;;12830039;23;20115;-78
2023/10/20 00:52:56;;;;;;;1.52;1.17;;;;;;;;;;12830014;23;20048;-79
2023/10/20 00:58:00;;;;;;;1.50;1.15;;;;;;;;;;12876242;23;20103;-79
2023/10/20 01:03:04;;;;;;;1.33;1.23;;;;;;;;;;12875952;23;20044;-78
2023/10/20 01:08:08;;;;;;;1.17;0.93;;;;;;;;;;12829285;23;20172;-77
2023/10/20 01:13:13;;;;;;;3.25;1.30;;;;;;;;;;12829438;23;20020;-78
2023/10/20 01:18:17;;;;;;;2.22;1.83;;;;;;;;;;12855529;23;20115;-78
2023/10/20 01:23:20;;;;;;;2.55;1.73;;;;;;;;;;12873920;23;20030;-78
2023/10/20 01:28:25;;;;;;;2.00;1.77;;;;;;;;;;12828987;23;20104;-78
2023/10/20 01:33:28;;;;;;;1.63;1.50;;;;;;;;;;12873259;23;20099;-78
2023/10/20 01:38:32;;;;;;;1.33;1.17;;;;;;;;;;12825554;23;20364;-78
2023/10/20 01:43:37;;;;;;;3.75;1.75;;;;;;;;;;12892682;22;20028;-77
2023/10/20 01:48:44;;;;;;;3.42;1.92;;;;;;;;;;12899113;23;20456;-78
2023/10/20 01:54:03;;;;;;;1.13;1.02;;;;;;;;;;12857503;23;20028;-78
2023/10/20 02:12:13;;;;;;;;;;;;;;;;;;;;;
2023/10/20 02:18:07;;;;;;;1.45;1.35;;;;;;;;;;12845502;23;20024;-78
2023/10/20 02:23:39;;;;;;;1.20;1.00;;;;;;;;;;12807644;23;20021;-78
2023/10/20 02:28:56;;;;;;;1.08;0.98;;;;;;;;;;12846292;23;20020;-78
2023/10/20 02:41:52;;;;;;;;;;;;;;;;;;;;;
2023/10/20 02:47:55;;;;;;;0.50;0.50;;;;;;;;;;12723942;23;20549;-78
2023/10/20 02:54:10;;;;;;;;;;;;;;;;;;;;;
2023/10/20 03:06:48;;;;;;;1.02;0.80;;;;;;;;;;12433568;23;20077;-78
2023/10/20 03:19:40;;;;;;;0.50;0.50;;;;;;;;;;12638591;23;20021;-77
2023/10/20 03:24:58;;;;;;;1.13;0.60;;;;;;;;;;12782562;23;20095;-77
2023/10/20 03:35:31;;;;;;;0.45;0.45;;;;;;;;;;12863285;23;19943;-78
2023/10/20 04:14:13;;;;;;;1.02;0.90;;;;;;;;;;12584780;23;20061;-79
2023/10/20 07:44:20;;;;;;;1.20;1.10;;;;;;;;;;12949073;22;20032;-78
2023/10/20 07:49:23;;;;;;;1.98;1.77;;;;;;;;;;12891369;23;20052;-78
2023/10/20 07:54:27;;;;;;;3.28;2.13;;;;;;;;;;12859241;23;20031;-78
2023/10/20 07:59:32;;;;;;;3.25;2.38;;;;;;;;;;12919943;22;20024;-78
2023/10/20 08:04:36;;;;;;;3.08;2.08;;;;;;;;;;12896197;23;20455;-78
2023/10/20 08:09:40;;;;;;;2.47;2.05;;;;;;;;;;12934216;22;20074;-79
2023/10/20 08:14:45;;;;;;;1.42;1.33;;;;;;;;;;12968612;22;20046;-79
2023/10/20 08:19:48;;;;;;;1.73;1.40;;;;;;;;;;12957053;22;20047;-78
2023/10/20 08:24:52;;;;;;;1.33;1.23;;;;;;;;;;12923441;23;20020;-79
2023/10/20 08:29:57;;;;;;;1.88;1.15;;;;;;;;;;12896014;23;20032;-79
2023/10/20 08:35:01;;;;;;;1.10;1.00;;;;;;;;;;12896101;23;20383;-79
2023/10/20 08:40:10;;;;;;;1.02;0.93;;;;;;;;;;12893116;23;20032;-79
2023/10/20 08:45:15;;;;;;;1.38;1.15;;;;;;;;;;12894911;23;20030;-79
2023/10/20 08:50:20;;;;;;;1.40;1.30;;;;;;;;;;12932165;22;20055;-78
2023/10/20 08:55:24;;;;;;;2.90;1.65;;;;;;;;;;12921995;23;20283;-79
2023/10/20 09:00:30;;;;;;;2.00;1.80;;;;;;;;;;12931449;22;20364;-79
2023/10/20 09:05:34;;;;;;;1.85;1.67;;;;;;;;;;12920429;23;20667;-79
2023/10/20 09:10:42;;;;;;;1.95;1.50;;;;;;;;;;12922360;22;20095;-79
2023/10/20 09:15:47;;;;;;;1.92;1.45;;;;;;;;;;12903600;23;20397;-79
2023/10/20 09:20:52;;;;;;;;;;;;;;;;;;12930617;23;20028;-79
2023/10/20 09:25:55;;;;;;;1.80;1.50;;;;;;;;;;12928794;22;19916;-79
2023/10/20 09:31:02;;;;;;;2.10;1.50;;;;;;;;;;12918851;23;20028;-79
2023/10/20 09:36:08;;;;;;;2.13;1.60;;;;;;;;;;12927684;22;20028;-79
2023/10/20 09:41:14;;;;;;;3.17;1.77;;;;;;;;;;12927903;23;20039;-79
2023/10/20 09:46:34;;;;;;;1.50;1.35;;;;;;;;;;12856468;23;20071;-79
2023/10/20 09:51:39;;;;;;;2.15;1.42;;;;;;;;;;12856505;23;20510;-78
2023/10/20 09:56:44;;;;;;;2.80;1.52;;;;;;;;;;12855911;23;20020;-78
2023/10/20 10:01:49;;;;;;;1.95;1.75;;;;;;;;;;12861239;23;20075;-78
2023/10/20 10:06:53;;;;;;;3.08;1.63;;;;;;;;;;12863739;23;20025;-79
2023/10/20 10:11:56;;;;;;;2.22;2.03;;;;;;;;;;12874464;23;20024;-78
2023/10/20 10:17:02;;;;;;;2.85;1.98;;;;;;;;;;12860209;23;20048;-78
2023/10/20 10:22:05;;;;;;;2.28;1.88;;;;;;;;;;12860041;23;20035;-78
2023/10/20 10:27:11;;;;;;;2.67;1.70;;;;;;;;;;12859602;23;20020;-78
2023/10/20 10:32:18;;;;;;;2.70;2.33;;;;;;;;;;12858223;23;20020;-78
2023/10/20 10:37:30;;;;;;;2.10;1.90;;;;;;;;;;12857296;23;20024;-78
2023/10/20 10:42:41;;;;;;;3.88;2.55;;;;;;;;;;12867583;23;20078;-78
2023/10/20 10:47:46;;;;;;;2.92;1.90;;;;;;;;;;12917506;22;20044;-78
2023/10/20 10:52:50;;;;;;;2.70;2.30;;;;;;;;;;12918091;23;20507;-78
2023/10/20 10:57:55;;;;;;;3.85;2.97;;;;;;;;;;12916265;22;20039;-79
2023/10/20 11:03:02;;;;;;;4.57;3.50;;;;;;;;;;12890562;23;20091;-77
2023/10/20 11:08:10;;;;;;;5.38;3.90;;;;;;;;;;12937381;22;20043;-78
2023/10/20 11:13:17;;;;;;;4.45;3.22;;;;;;;;;;12935539;23;20028;-78
2023/10/20 11:18:24;;;;;;;3.67;3.17;;;;;;;;;;12934982;22;20028;-78
2023/10/20 11:23:30;;;;;;;4.00;3.55;;;;;;;;;;12917560;23;20039;-78
2023/10/20 11:28:34;;;;;;;4.82;4.00;;;;;;;;;;12935084;22;20103;-78
2023/10/20 11:33:39;;;;;;;4.13;3.15;;;;;;;;;;12918461;23;20020;-78
2023/10/20 11:38:45;;;;;;;5.28;3.78;;;;;;;;;;12890730;22;20414;-78
2023/10/20 11:43:49;;;;;;;4.35;3.63;;;;;;;;;;12933238;23;20054;-77
2023/10/20 11:48:54;;;;;;;3.97;3.22;;;;;;;;;;12932368;22;20032;-77
2023/10/20 11:53:57;;;;;;;3.55;2.72;;;;;;;;;;12914721;23;20024;-78
2023/10/20 11:59:00;;;;;;;3.20;2.90;;;;;;;;;;12931631;22;20028;-78
2023/10/20 12:04:08;;;;;;;5.43;3.67;;;;;;;;;;12939323;23;20012;-78
2023/10/20 12:09:14;;;;;;;2.97;2.25;;;;;;;;;;12951960;22;20020;-78
2023/10/20 12:14:18;;;;;;;3.65;2.70;;;;;;;;;;12937290;23;20020;-77
2023/10/20 12:19:23;;;;;;;4.00;2.83;;;;;;;;;;12917477;22;20054;-78
2023/10/20 12:24:27;;;;;;;3.90;2.57;;;;;;;;;;12929010;23;20525;-77
2023/10/20 12:29:30;;;;;;;3.25;2.33;;;;;;;;;;12927618;22;20024;-78
2023/10/20 12:34:36;;;;;;;4.70;2.30;;;;;;;;;;12930657;23;20034;-77
2023/10/20 12:39:40;;;;;;;4.07;2.40;;;;;;;;;;12930033;22;20024;-77
2023/10/20 12:44:44;;;;;;;10.25;3.10;;;;;;;;;;12904129;23;20008;-78
2023/10/20 12:49:49;;;;;;;2.95;2.42;;;;;;;;;;12929970;22;20024;-78
2023/10/20 12:54:52;;;;;;;2.33;2.13;;;;;;;;;;12917233;23;20023;-77
2023/10/20 12:59:56;;;;;;;4.97;3.25;;;;;;;;;;12928261;22;20017;-77
2023/10/20 13:05:00;;;;;;;2.00;1.75;;;;;;;;;;12928053;23;20064;-77
2023/10/20 13:10:04;;;;;;;3.42;2.03;;;;;;;;;;12915352;22;20036;-76
2023/10/20 13:15:09;;;;;;;2.90;2.50;;;;;;;;;;12929885;23;20308;-77
2023/10/20 13:20:14;;;;;;;2.80;2.50;;;;;;;;;;12930394;22;20499;-77
2023/10/20 13:25:19;;;;;;;2.42;1.83;;;;;;;;;;12914730;23;20082;-77
2023/10/20 13:30:22;;;;;;;2.15;1.85;;;;;;;;;;12901701;23;20024;-77
2023/10/20 13:35:27;;;;;;;1.27;1.17;;;;;;;;;;12928621;23;20051;-77
2023/10/20 13:40:33;;;;;;;3.47;1.42;;;;;;;;;;12928812;22;20410;-77
2023/10/20 13:45:37;;;;;;;1.25;1.15;;;;;;;;;;12916996;22;20027;-75
2023/10/20 13:50:42;;;;;;;1.40;1.20;;;;;;;;;;12864517;23;20107;-75
2023/10/20 13:55:46;;;;;;;1.10;0.90;;;;;;;;;;12863590;23;20023;-75
2023/10/20 14:00:51;;;;;;;0.93;0.40;;;;;;;;;;12862712;23;20029;-75
2023/10/20 14:06:06;;;;;;;0.38;0.30;;;;;;;;;;12862154;23;20387;-75
2023/10/20 14:11:14;;;;;;;1.85;0.13;;;;;;;;;;12851272;23;20031;-75
2023/10/20 14:16:18;;;;;;;0.10;0.10;;;;;;;;;;12861430;23;20027;-75
2023/10/20 14:21:23;;;;;;;0.47;0.20;;;;;;;;;;12824393;23;20036;-75
2023/10/20 14:26:27;;;;;;;0.47;0.20;;;;;;;;;;12850064;23;20021;-75
2023/10/20 14:31:33;;;;;;;0.32;0.10;;;;;;;;;;12850068;23;20029;-75
2023/10/20 14:36:44;;;;;;;0.00;0.00;;;;;;;;;;12824167;23;20095;-75
2023/10/20 14:41:47;;;;;;;0.10;0.10;;;;;;;;;;12857902;23;20032;-75
2023/10/20 14:46:51;;;;;;;0.10;0.10;;;;;;;;;;12849880;23;20021;-75
2023/10/20 14:51:56;;;;;;;0.60;0.40;;;;;;;;;;12858230;23;20028;-75
2023/10/20 14:57:00;;;;;;;0.30;0.30;;;;;;;;;;12849887;23;20415;-75
2023/10/20 15:02:03;;;;;;;0.50;0.50;;;;;;;;;;12849410;23;20028;-74
2023/10/20 15:07:08;;;;;;;0.22;0.20;;;;;;;;;;12849232;23;20017;-75
2023/10/20 15:12:12;;;;;;;0.22;0.22;;;;;;;;;;12854204;23;20052;-74
2023/10/20 15:17:15;;;;;;;0.47;0.30;;;;;;;;;;12853943;23;20025;-74
2023/10/20 15:22:20;;;;;;;0.38;0.30;;;;;;;;;;12821145;23;20031;-74
2023/10/20 15:27:24;;;;;;;0.22;0.20;;;;;;;;;;12847876;23;20028;-74
2023/10/20 15:32:27;;;;;;;0.52;0.35;;;;;;;;;;12855060;23;20028;-74
2023/10/20 15:37:34;;;;;;;1.08;0.57;;;;;;;;;;12854740;23;20095;-74
2023/10/20 15:42:37;;;;;;;0.93;0.47;;;;;;;;;;12851040;23;20032;-74
2023/10/20 15:47:43;;;;;;;0.20;0.20;;;;;;;;;;12854044;23;20043;-75
2023/10/20 15:52:48;;;;;;;0.82;0.30;;;;;;;;;;12853695;23;20032;-74
2023/10/20 15:57:54;;;;;;;0.80;0.45;;;;;;;;;;12837687;23;20343;-74
2023/10/20 16:02:57;;;;;;;1.20;0.60;;;;;;;;;;12848936;23;20033;-75
2023/10/20 16:08:02;;;;;;;0.10;0.10;;;;;;;;;;12854200;23;20017;-74
2023/10/20 16:13:05;;;;;;;0.10;0.10;;;;;;;;;;12852626;23;20032;-74
2023/10/20 16:18:08;;;;;;;0.55;0.10;;;;;;;;;;12855743;23;20024;-74
2023/10/20 16:23:13;;;;;;;0.63;0.25;;;;;;;;;;12852596;23;20028;-74
2023/10/20 16:28:17;;;;;;;0.55;0.40;;;;;;;;;;12854925;23;20025;-75
2023/10/20 16:33:20;;;;;;;1.17;0.47;;;;;;;;;;12853234;23;20337;-74
2023/10/20 16:38:26;;;;;;;1.02;0.55;;;;;;;;;;12853898;23;20023;-74
2023/10/20 16:43:29;;;;;;;1.80;0.50;;;;;;;;;;12853012;23;20106;-74
2023/10/20 16:48:33;;;;;;;0.70;0.40;;;;;;;;;;12851881;23;20274;-75
2023/10/20 16:53:38;;;;;;;2.10;0.88;;;;;;;;;;12850825;23;20047;-75
2023/10/20 16:58:41;;;;;;;1.27;0.70;;;;;;;;;;12850605;23;20211;-74
2023/10/20 17:03:45;;;;;;;1.38;0.82;;;;;;;;;;12860377;23;20021;-75
2023/10/20 17:08:50;;;;;;;2.75;0.90;;;;;;;;;;12850338;23;20029;-74
2023/10/20 17:13:53;;;;;;;3.03;1.35;;;;;;;;;;12871410;23;20021;-74
2023/10/20 17:18:57;;;;;;;3.67;1.02;;;;;;;;;;12873271;23;20021;-75
2023/10/20 17:24:02;;;;;;;3.85;1.75;;;;;;;;;;12876115;23;20032;-74
2023/10/20 17:29:06;;;;;;;6.97;2.63;;;;;;;;;;12856244;23;20024;-74
2023/10/20 17:34:10;;;;;;;2.15;1.00;;;;;;;;;;12827605;23;20036;-74
2023/10/20 17:39:15;;;;;;;3.72;1.52;;;;;;;;;;12826214;23;20360;-74
2023/10/20 17:44:18;;;;;;;2.30;1.10;;;;;;;;;;12869940;23;20025;-75
2023/10/20 17:49:22;;;;;;;7.65;3.00;;;;;;;;;;12849358;23;20028;-75
2023/10/20 17:54:26;;;;;;;6.05;2.65;;;;;;;;;;12868989;23;20060;-75
2023/10/20 17:59:30;;;;;;;1.67;1.25;;;;;;;;;;12867412;23;20078;-74
2023/10/20 18:04:33;;;;;;;1.08;0.90;;;;;;;;;;12823191;23;20035;-75
2023/10/20 18:09:38;;;;;;;1.65;0.80;;;;;;;;;;12865788;23;20025;-75
2023/10/20 18:14:42;;;;;;;1.83;0.80;;;;;;;;;;12865999;23;20025;-75
2023/10/20 18:19:46;;;;;;;1.20;0.85;;;;;;;;;;12865476;23;20495;-75
2023/10/20 18:24:52;;;;;;;1.05;0.65;;;;;;;;;;12864960;23;20028;-75
2023/10/20 18:29:56;;;;;;;0.65;0.52;;;;;;;;;;12823141;23;20024;-75
2023/10/20 18:34:59;;;;;;;2.05;1.08;;;;;;;;;;12823704;23;20532;-75
2023/10/20 18:40:06;;;;;;;5.43;2.20;;;;;;;;;;12864530;23;20024;-75
2023/10/20 18:45:09;;;;;;;9.80;4.15;;;;;;;;;;12823961;23;20079;-75
2023/10/20 18:50:13;;;;;;;4.55;2.45;;;;;;;;;;12864422;23;20055;-75
2023/10/20 18:55:18;;;;;;;2.53;1.45;;;;;;;;;;12863773;23;20028;-75
2023/10/20 19:00:22;;;;;;;1.93;1.03;;;;;;;;;;12864188;23;20032;-75
2023/10/20 19:05:25;;;;;;;3.35;1.15;;;;;;;;;;12862323;23;20260;-75
2023/10/20 19:10:31;;;;;;;4.28;2.78;;;;;;;;;;12850678;23;20383;-75
2023/10/20 19:15:34;;;;;;;7.70;4.07;;;;;;;;;;12862807;23;20055;-75
2023/10/20 19:20:37;;;;;;;7.72;3.78;;;;;;;;;;12848412;23;20094;-75
2023/10/20 19:25:43;;;;;;;4.70;2.67;;;;;;;;;;12838077;23;20511;-76
2023/10/20 19:30:46;;;;;;;10.53;4.43;;;;;;;;;;12850069;23;20086;-76
2023/10/20 19:35:50;;;;;;;1.63;1.40;;;;;;;;;;12848394;23;20032;-76
2023/10/20 19:40:55;;;;;;;2.92;1.63;;;;;;;;;;12861972;23;20036;-76
2023/10/20 19:45:59;;;;;;;2.63;1.50;;;;;;;;;;12827147;23;20028;-76
2023/10/20 19:51:02;;;;;;;2.08;1.00;;;;;;;;;;12864817;23;20024;-76
2023/10/20 19:56:08;;;;;;;1.23;0.70;;;;;;;;;;12852666;23;20411;-76
2023/10/20 20:01:11;;;;;;;0.90;0.50;;;;;;;;;;12854639;23;20024;-75
2023/10/20 20:06:15;;;;;;;0.30;0.30;;;;;;;;;;12853840;23;20029;-76
2023/10/20 20:11:21;;;;;;;0.40;0.40;;;;;;;;;;12852935;23;20025;-76
2023/10/20 20:16:24;;;;;;;1.63;0.70;;;;;;;;;;12851828;23;20032;-76
2023/10/20 20:21:28;;;;;;;1.42;0.50;;;;;;;;;;12861692;23;20035;-76
2023/10/20 20:26:32;;;;;;;3.67;2.17;;;;;;;;;;12825019;23;20349;-76
2023/10/20 20:31:36;;;;;;;1.80;0.90;;;;;;;;;;12861401;23;20359;-76
2023/10/20 20:36:40;;;;;;;0.90;0.63;;;;;;;;;;12861349;23;20111;-76
2023/10/20 20:41:45;;;;;;;0.73;0.60;;;;;;;;;;12860355;23;20029;-76
2023/10/20 20:46:48;;;;;;;1.42;0.88;;;;;;;;;;12853115;23;20029;-76
2023/10/20 20:51:52;;;;;;;1.65;1.00;;;;;;;;;;12851449;23;20036;-76
2023/10/20 20:56:57;;;;;;;3.55;1.00;;;;;;;;;;12853085;23;20027;-76
2023/10/20 21:02:01;;;;;;;1.92;0.60;;;;;;;;;;12858740;23;20025;-76
2023/10/20 21:07:05;;;;;;;0.98;0.55;;;;;;;;;;12825706;23;20483;-76
2023/10/20 21:12:10;;;;;;;1.25;0.55;;;;;;;;;;12858497;23;20074;-76
2023/10/20 21:17:13;;;;;;;0.93;0.60;;;;;;;;;;12858021;23;20056;-77
2023/10/20 21:22:17;;;;;;;0.70;0.60;;;;;;;;;;12861928;23;20507;-76
2023/10/20 21:27:21;;;;;;;0.75;0.57;;;;;;;;;;12860510;23;20025;-76
2023/10/20 21:32:25;;;;;;;2.03;0.80;;;;;;;;;;12859062;23;20103;-76
2023/10/20 21:37:28;;;;;;;0.63;0.50;;;;;;;;;;12851481;23;20387;-76
2023/10/20 21:42:35;;;;;;;2.05;0.50;;;;;;;;;;12852565;23;20449;-76
2023/10/20 21:47:40;;;;;;;0.95;0.60;;;;;;;;;;12843655;23;20632;-76
2023/10/20 21:52:44;;;;;;;0.60;0.52;;;;;;;;;;12855757;23;20051;-75
2023/10/20 21:57:49;;;;;;;0.93;0.60;;;;;;;;;;12855376;23;20025;-76
2023/10/20 22:02:52;;;;;;;0.75;0.70;;;;;;;;;;12851485;23;20036;-76
2023/10/20 22:07:56;;;;;;;1.67;0.70;;;;;;;;;;12848558;23;20033;-77
2023/10/20 22:13:01;;;;;;;0.38;0.38;;;;;;;;;;12854963;23;20086;-78
2023/10/20 22:18:05;;;;;;;0.60;0.52;;;;;;;;;;12856216;23;20025;-79
2023/10/20 22:23:09;;;;;;;0.50;0.50;;;;;;;;;;12828887;23;20025;-79
2023/10/20 22:28:14;;;;;;;1.00;0.40;;;;;;;;;;12856318;23;20020;-78
2023/10/20 22:33:18;;;;;;;0.60;0.40;;;;;;;;;;12827007;23;20376;-78
2023/10/20 22:38:21;;;;;;;0.40;0.35;;;;;;;;;;12858001;23;20044;-79
2023/10/20 22:43:26;;;;;;;0.45;0.30;;;;;;;;;;12854816;23;20519;-78
2023/10/20 22:48:30;;;;;;;0.30;0.30;;;;;;;;;;12854920;23;20464;-78
2023/10/20 22:53:33;;;;;;;0.43;0.40;;;;;;;;;;12855119;23;20028;-78
2023/10/20 22:58:46;;;;;;;0.50;0.50;;;;;;;;;;12840653;23;20640;-79
2023/10/20 23:03:58;;;;;;;0.85;0.40;;;;;;;;;;12853791;23;20024;-79
2023/10/20 23:09:02;;;;;;;0.70;0.60;;;;;;;;;;12837058;23;20037;-78
2023/10/20 23:14:08;;;;;;;0.40;0.40;;;;;;;;;;12871089;23;20021;-78
2023/10/20 23:19:12;;;;;;;0.82;0.50;;;;;;;;;;12826560;23;20333;-78
2023/10/20 23:24:15;;;;;;;0.30;0.30;;;;;;;;;;12825417;23;20032;-78
2023/10/20 23:29:23;;;;;;;0.47;0.32;;;;;;;;;;12855564;23;20036;-78
2023/10/20 23:34:26;;;;;;;0.45;0.40;;;;;;;;;;12853829;23;20028;-78
2023/10/20 23:39:32;;;;;;;0.57;0.30;;;;;;;;;;12869426;23;20085;-78
2023/10/20 23:44:39;;;;;;;0.38;0.32;;;;;;;;;;12869696;23;20447;-78
2023/10/20 23:49:42;;;;;;;0.45;0.40;;;;;;;;;;12825277;23;20020;-78
2023/10/20 23:54:46;;;;;;;0.50;0.50;;;;;;;;;;12849619;23;20460;-77
2023/10/20 23:59:51;;;;;;;0.30;0.30;;;;;;;;;;12867902;23;20027;-77
